Time;durP1;ratioP1;P1;durP2;ratioP2;P2;SDS_P1;SDS_P2;PMS_P1;PMS_P2;Temp;Humidity;BMP_temperature;BMP_pressure;BME280_temperature;BME280_humidity;BME280_pressure;Samples;Min_cycle;Max_cycle;Signal;HPM_P1;HPM_P2
2023/08/30 00:02:08;;;;;;;4.00;2.70;;;;;;;;;;5087227;28;20040;-81
2023/08/30 00:04:35;;;;;;;2.65;2.35;;;;;;;;;;5084064;28;20066;-83
2023/08/30 00:07:01;;;;;;;3.85;2.80;;;;;;;;;;5085025;28;20036;-83
2023/08/30 00:09:27;;;;;;;2.65;2.40;;;;;;;;;;5084566;28;20080;-83
2023/08/30 00:11:53;;;;;;;4.00;2.92;;;;;;;;;;5089996;28;20702;-83
2023/08/30 00:14:20;;;;;;;3.70;3.05;;;;;;;;;;5083402;28;20104;-83
2023/08/30 00:16:46;;;;;;;4.50;3.20;;;;;;;;;;5072713;28;20056;-83
2023/08/30 00:19:12;;;;;;;3.53;2.88;;;;;;;;;;5083377;28;20047;-82
2023/08/30 00:21:38;;;;;;;3.35;2.80;;;;;;;;;;5083210;28;20042;-83
2023/08/30 00:24:05;;;;;;;3.67;2.50;;;;;;;;;;5063316;28;20044;-82
2023/08/30 00:26:31;;;;;;;3.75;2.90;;;;;;;;;;5085581;28;20131;-83
2023/08/30 00:28:57;;;;;;;5.22;2.90;;;;;;;;;;5086268;28;20044;-83
2023/08/30 00:31:23;;;;;;;5.38;3.72;;;;;;;;;;5084029;28;20052;-83
2023/08/30 00:33:50;;;;;;;4.03;3.30;;;;;;;;;;5087367;28;20048;-84
2023/08/30 00:36:18;;;;;;;4.57;3.03;;;;;;;;;;5088889;28;20045;-83
2023/08/30 00:38:44;;;;;;;3.55;2.95;;;;;;;;;;5086601;28;20541;-83
2023/08/30 00:41:10;;;;;;;5.85;3.20;;;;;;;;;;5083679;28;20101;-83
2023/08/30 00:43:36;;;;;;;4.45;3.55;;;;;;;;;;5079959;28;20479;-83
2023/08/30 00:46:02;;;;;;;5.82;3.50;;;;;;;;;;5085429;28;20056;-84
2023/08/30 00:48:28;;;;;;;4.90;3.28;;;;;;;;;;5085406;28;20079;-84
2023/08/30 00:50:54;;;;;;;5.07;3.88;;;;;;;;;;5087372;28;20040;-83
2023/08/30 00:53:21;;;;;;;4.40;3.63;;;;;;;;;;5087436;28;20048;-84
2023/08/30 00:55:47;;;;;;;4.03;3.10;;;;;;;;;;5085023;28;20071;-83
2023/08/30 00:58:13;;;;;;;3.47;2.97;;;;;;;;;;5090957;28;20169;-83
2023/08/30 01:00:39;;;;;;;4.70;3.40;;;;;;;;;;5092974;28;20085;-84
2023/08/30 01:03:09;;;;;;;5.00;3.60;;;;;;;;;;5081428;28;20040;-83
2023/08/30 01:05:35;;;;;;;6.28;3.72;;;;;;;;;;5089007;28;20079;-83
2023/08/30 01:08:02;;;;;;;4.55;3.90;;;;;;;;;;5095602;28;20044;-83
2023/08/30 01:10:51;;;;;;;5.38;3.83;;;;;;;;;;5090319;28;20414;-83
2023/08/30 01:13:20;;;;;;;5.18;3.78;;;;;;;;;;5076077;28;20052;-83
2023/08/30 01:15:48;;;;;;;6.72;4.35;;;;;;;;;;5086220;28;20399;-83
2023/08/30 01:18:15;;;;;;;8.05;4.15;;;;;;;;;;5083904;28;20044;-83
2023/08/30 01:20:44;;;;;;;6.25;4.20;;;;;;;;;;5080792;28;20102;-83
2023/08/30 01:23:25;;;;;;;4.50;4.10;;;;;;;;;;5087793;28;20075;-83
2023/08/30 01:25:58;;;;;;;6.40;4.53;;;;;;;;;;5084867;28;20070;-84
2023/08/30 01:28:26;;;;;;;6.43;4.65;;;;;;;;;;5083622;28;20050;-83
2023/08/30 01:30:57;;;;;;;6.57;4.60;;;;;;;;;;5082951;28;20047;-83
2023/08/30 01:33:23;;;;;;;6.95;4.50;;;;;;;;;;5087211;28;20111;-84
2023/08/30 01:35:50;;;;;;;6.03;4.68;;;;;;;;;;5063919;28;20058;-84
2023/08/30 01:38:16;;;;;;;5.47;4.55;;;;;;;;;;5086569;28;20052;-84
2023/08/30 01:40:44;;;;;;;5.03;4.45;;;;;;;;;;5084763;28;20079;-84
2023/08/30 01:43:13;;;;;;;6.18;4.80;;;;;;;;;;5085529;28;20340;-84
2023/08/30 01:45:40;;;;;;;6.30;4.90;;;;;;;;;;5086960;28;20046;-84
2023/08/30 01:48:07;;;;;;;5.85;5.03;;;;;;;;;;5085450;28;20058;-84
2023/08/30 01:50:34;;;;;;;7.00;5.22;;;;;;;;;;5085379;28;20032;-84
2023/08/30 01:53:01;;;;;;;8.50;5.28;;;;;;;;;;5083374;28;20067;-84
2023/08/30 01:55:29;;;;;;;6.40;5.40;;;;;;;;;;5086166;28;20047;-84
2023/08/30 01:57:55;;;;;;;7.60;5.93;;;;;;;;;;5086641;28;20044;-84
2023/08/30 02:00:21;;;;;;;8.50;6.00;;;;;;;;;;5081871;28;20051;-84
2023/08/30 02:02:48;;;;;;;8.43;5.85;;;;;;;;;;5082655;28;20055;-83
2023/08/30 02:05:14;;;;;;;7.93;6.18;;;;;;;;;;5063156;28;20040;-83
2023/08/30 02:07:44;;;;;;;7.88;6.05;;;;;;;;;;5082476;28;20031;-83
2023/08/30 02:10:11;;;;;;;7.43;6.60;;;;;;;;;;5068598;28;20043;-83
2023/08/30 02:12:48;;;;;;;8.60;6.80;;;;;;;;;;5082980;28;20052;-83
2023/08/30 02:15:15;;;;;;;7.65;6.03;;;;;;;;;;5082058;28;20040;-83
2023/08/30 02:17:41;;;;;;;9.13;7.18;;;;;;;;;;5083470;28;20147;-83
2023/08/30 02:20:07;;;;;;;9.60;7.53;;;;;;;;;;5089144;28;20036;-83
2023/08/30 02:22:33;;;;;;;10.57;6.72;;;;;;;;;;5089937;28;20040;-83
2023/08/30 02:25:04;;;;;;;7.97;7.05;;;;;;;;;;5090783;28;20044;-83
2023/08/30 02:27:30;;;;;;;7.70;6.68;;;;;;;;;;5084597;28;20123;-83
2023/08/30 02:29:56;;;;;;;10.00;6.93;;;;;;;;;;5083988;28;20388;-83
2023/08/30 02:32:22;;;;;;;8.75;6.97;;;;;;;;;;5087131;28;20512;-84
2023/08/30 02:34:50;;;;;;;8.25;6.70;;;;;;;;;;5082348;28;20059;-84
2023/08/30 02:37:16;;;;;;;10.35;7.93;;;;;;;;;;5089568;28;20105;-86
2023/08/30 02:39:43;;;;;;;12.05;8.20;;;;;;;;;;5088446;28;20036;-85
2023/08/30 02:42:09;;;;;;;11.57;8.45;;;;;;;;;;5089076;28;20094;-84
2023/08/30 02:44:35;;;;;;;10.70;8.27;;;;;;;;;;5088403;28;20044;-85
2023/08/30 02:47:01;;;;;;;11.10;8.50;;;;;;;;;;5094227;28;20040;-84
2023/08/30 02:49:27;;;;;;;11.20;8.63;;;;;;;;;;5071858;28;20391;-83
2023/08/30 02:51:53;;;;;;;10.10;8.38;;;;;;;;;;5086250;28;20560;-83
2023/08/30 02:54:22;;;;;;;10.23;8.38;;;;;;;;;;5079956;28;20032;-83
2023/08/30 02:56:48;;;;;;;13.18;8.70;;;;;;;;;;5081436;28;20047;-83
2023/08/30 02:59:14;;;;;;;10.27;9.13;;;;;;;;;;5093321;28;20086;-83
2023/08/30 03:01:40;;;;;;;10.85;9.45;;;;;;;;;;5085895;28;20055;-83
2023/08/30 03:04:06;;;;;;;12.50;10.18;;;;;;;;;;5091269;28;20047;-82
2023/08/30 03:06:33;;;;;;;12.38;10.43;;;;;;;;;;5084820;28;20040;-82
2023/08/30 03:08:59;;;;;;;12.25;9.43;;;;;;;;;;5089310;28;20491;-82
2023/08/30 03:11:25;;;;;;;11.93;10.00;;;;;;;;;;5090227;28;20113;-82
2023/08/30 03:13:51;;;;;;;11.55;10.35;;;;;;;;;;5086090;28;20068;-82
2023/08/30 03:16:18;;;;;;;13.75;10.88;;;;;;;;;;5087268;28;20036;-82
2023/08/30 03:18:44;;;;;;;14.32;10.88;;;;;;;;;;5088100;28;20051;-82
2023/08/30 03:21:14;;;;;;;11.60;10.20;;;;;;;;;;5085555;28;20047;-82
2023/08/30 03:23:40;;;;;;;12.82;11.48;;;;;;;;;;5085708;28;20143;-81
2023/08/30 03:26:13;;;;;;;13.68;10.80;;;;;;;;;;5067304;28;20040;-82
2023/08/30 03:28:40;;;;;;;13.32;10.90;;;;;;;;;;5087582;28;20048;-82
2023/08/30 03:31:14;;;;;;;12.85;11.05;;;;;;;;;;5086680;28;20040;-82
2023/08/30 03:33:44;;;;;;;15.52;12.90;;;;;;;;;;5088962;28;20383;-82
2023/08/30 03:36:14;;;;;;;14.70;12.30;;;;;;;;;;5089442;28;20118;-82
2023/08/30 03:38:41;;;;;;;14.18;12.38;;;;;;;;;;5087931;28;20806;-82
2023/08/30 03:41:07;;;;;;;15.57;12.23;;;;;;;;;;5087692;28;20052;-82
2023/08/30 03:43:33;;;;;;;17.15;12.57;;;;;;;;;;5086784;28;20052;-83
2023/08/30 03:46:05;;;;;;;14.45;12.52;;;;;;;;;;5088840;28;20044;-82
2023/08/30 03:48:31;;;;;;;15.00;12.45;;;;;;;;;;5089524;28;20489;-83
2023/08/30 03:50:58;;;;;;;15.70;12.93;;;;;;;;;;5090151;28;20047;-83
2023/08/30 03:53:24;;;;;;;18.73;14.00;;;;;;;;;;5086291;28;20533;-83
2023/08/30 03:55:50;;;;;;;17.92;14.90;;;;;;;;;;5084770;28;20048;-82
2023/08/30 03:58:17;;;;;;;18.83;15.75;;;;;;;;;;5090627;28;20518;-83
2023/08/30 04:00:43;;;;;;;20.65;15.18;;;;;;;;;;5087949;28;20498;-82
2023/08/30 04:03:09;;;;;;;18.92;15.32;;;;;;;;;;5089362;28;20122;-82
2023/08/30 04:05:36;;;;;;;20.48;15.32;;;;;;;;;;5089831;28;20395;-82
2023/08/30 04:08:02;;;;;;;18.80;15.07;;;;;;;;;;5082860;28;20130;-82
2023/08/30 04:10:28;;;;;;;20.02;16.00;;;;;;;;;;5084152;28;20377;-82
2023/08/30 04:12:54;;;;;;;19.90;15.48;;;;;;;;;;5065002;28;20058;-82
2023/08/30 04:15:20;;;;;;;18.88;14.57;;;;;;;;;;5082673;28;20052;-83
2023/08/30 04:17:46;;;;;;;19.48;15.10;;;;;;;;;;5083542;28;20079;-83
2023/08/30 04:20:12;;;;;;;17.60;15.18;;;;;;;;;;5079888;28;20044;-83
2023/08/30 04:22:38;;;;;;;18.00;14.43;;;;;;;;;;5084110;28;20510;-83
2023/08/30 04:25:05;;;;;;;18.40;15.07;;;;;;;;;;5083039;28;20051;-82
2023/08/30 04:27:31;;;;;;;16.52;13.70;;;;;;;;;;5084162;28;20055;-83
2023/08/30 04:29:57;;;;;;;18.65;15.45;;;;;;;;;;5063297;28;20048;-82
2023/08/30 04:32:23;;;;;;;17.88;14.88;;;;;;;;;;5084399;28;20395;-83
2023/08/30 04:34:49;;;;;;;18.75;14.32;;;;;;;;;;5082111;28;20048;-83
2023/08/30 04:37:15;;;;;;;18.85;14.70;;;;;;;;;;5080559;28;20509;-84
2023/08/30 04:39:41;;;;;;;20.55;14.63;;;;;;;;;;5063381;28;20048;-83
2023/08/30 04:42:07;;;;;;;18.65;14.15;;;;;;;;;;5085436;28;20479;-83
2023/08/30 04:44:33;;;;;;;20.60;14.63;;;;;;;;;;5066484;28;20047;-83
2023/08/30 04:46:59;;;;;;;18.83;15.10;;;;;;;;;;5084495;28;20086;-83
2023/08/30 04:49:25;;;;;;;18.42;15.35;;;;;;;;;;5069435;28;20052;-83
2023/08/30 04:51:52;;;;;;;20.42;15.88;;;;;;;;;;5085504;28;20043;-83
2023/08/30 04:54:18;;;;;;;19.52;15.35;;;;;;;;;;5085832;28;20153;-83
2023/08/30 04:56:44;;;;;;;20.70;15.07;;;;;;;;;;5089484;28;20393;-83
2023/08/30 04:59:10;;;;;;;20.10;15.63;;;;;;;;;;5078958;28;20198;-82
2023/08/30 05:01:37;;;;;;;18.73;15.23;;;;;;;;;;5087763;28;20137;-82
2023/08/30 05:04:03;;;;;;;19.90;15.57;;;;;;;;;;5088232;28;20478;-83
2023/08/30 05:06:29;;;;;;;21.80;15.75;;;;;;;;;;5087540;28;20052;-82
2023/08/30 05:08:55;;;;;;;20.02;15.32;;;;;;;;;;5087615;28;20119;-82
2023/08/30 05:11:21;;;;;;;21.63;16.40;;;;;;;;;;5087847;28;20135;-83
2023/08/30 05:13:48;;;;;;;22.42;16.30;;;;;;;;;;5090015;28;20399;-82
2023/08/30 05:16:13;;;;;;;22.73;17.70;;;;;;;;;;5098102;28;20047;-82
2023/08/30 05:18:39;;;;;;;22.85;16.75;;;;;;;;;;5071745;28;20391;-83
2023/08/30 05:21:05;;;;;;;19.55;15.48;;;;;;;;;;5088679;28;20040;-82
2023/08/30 05:23:32;;;;;;;20.30;15.85;;;;;;;;;;5072001;28;20040;-83
2023/08/30 05:25:58;;;;;;;21.88;15.85;;;;;;;;;;5089332;28;20036;-83
2023/08/30 05:28:24;;;;;;;21.70;15.98;;;;;;;;;;5074484;28;20063;-82
2023/08/30 05:30:50;;;;;;;25.33;16.13;;;;;;;;;;5087296;28;20044;-82
2023/08/30 05:33:16;;;;;;;21.33;15.70;;;;;;;;;;5088590;28;20113;-82
2023/08/30 05:35:42;;;;;;;22.45;16.48;;;;;;;;;;5089842;28;20047;-83
2023/08/30 05:38:08;;;;;;;20.33;15.80;;;;;;;;;;5097107;28;20421;-82
2023/08/30 05:40:34;;;;;;;21.63;15.32;;;;;;;;;;5088228;28;20189;-83
2023/08/30 05:43:00;;;;;;;24.27;15.93;;;;;;;;;;5085687;28;20139;-82
2023/08/30 05:45:26;;;;;;;18.88;15.00;;;;;;;;;;5083056;28;20067;-82
2023/08/30 05:47:52;;;;;;;21.45;16.35;;;;;;;;;;5084787;28;20044;-81
2023/08/30 05:50:18;;;;;;;20.27;15.05;;;;;;;;;;5084425;28;20036;-82
2023/08/30 05:52:44;;;;;;;20.52;16.48;;;;;;;;;;5084674;28;20087;-81
2023/08/30 05:55:10;;;;;;;19.95;14.52;;;;;;;;;;5066882;28;20048;-81
2023/08/30 05:57:36;;;;;;;23.67;16.08;;;;;;;;;;5082840;28;20040;-81
2023/08/30 06:00:04;;;;;;;21.50;15.48;;;;;;;;;;5081654;28;20059;-81
2023/08/30 06:02:30;;;;;;;25.23;15.88;;;;;;;;;;5072548;28;20036;-81
2023/08/30 06:04:56;;;;;;;22.60;16.25;;;;;;;;;;5094098;28;20051;-81
2023/08/30 06:07:23;;;;;;;22.33;15.65;;;;;;;;;;5088609;28;20039;-81
2023/08/30 06:09:49;;;;;;;20.90;14.40;;;;;;;;;;5080163;28;20281;-82
2023/08/30 06:12:15;;;;;;;21.90;15.35;;;;;;;;;;5084677;28;20117;-82
2023/08/30 06:14:41;;;;;;;18.77;15.10;;;;;;;;;;5088625;28;20435;-82
2023/08/30 06:17:07;;;;;;;23.95;16.05;;;;;;;;;;5084137;28;20036;-82
2023/08/30 06:19:33;;;;;;;23.45;16.92;;;;;;;;;;5083597;28;20122;-82
2023/08/30 06:21:59;;;;;;;19.75;15.85;;;;;;;;;;5088753;28;20177;-82
2023/08/30 06:24:25;;;;;;;19.60;16.15;;;;;;;;;;5068895;28;20139;-82
2023/08/30 06:26:51;;;;;;;23.20;16.63;;;;;;;;;;5065554;28;20048;-81
2023/08/30 06:29:17;;;;;;;22.85;17.45;;;;;;;;;;5085635;28;20402;-81
2023/08/30 06:31:45;;;;;;;24.48;17.85;;;;;;;;;;5092680;28;20042;-82
2023/08/30 06:34:11;;;;;;;22.30;17.13;;;;;;;;;;5072332;28;20052;-82
2023/08/30 06:36:37;;;;;;;20.67;15.63;;;;;;;;;;5066400;28;20044;-73
2023/08/30 06:39:03;;;;;;;19.55;14.95;;;;;;;;;;5088756;28;20069;-74
2023/08/30 06:41:29;;;;;;;18.85;13.20;;;;;;;;;;5089950;28;20047;-75
2023/08/30 06:43:56;;;;;;;18.23;12.13;;;;;;;;;;5086099;28;20044;-76
2023/08/30 06:46:22;;;;;;;15.10;12.30;;;;;;;;;;5066478;28;20048;-77
2023/08/30 06:48:48;;;;;;;16.13;12.02;;;;;;;;;;5088566;28;20190;-76
2023/08/30 06:51:14;;;;;;;13.13;10.48;;;;;;;;;;5072033;28;20550;-79
2023/08/30 06:53:40;;;;;;;12.98;9.20;;;;;;;;;;5090737;28;20050;-76
2023/08/30 06:56:09;;;;;;;12.50;8.68;;;;;;;;;;5077477;28;20121;-80
2023/08/30 06:58:43;;;;;;;12.10;9.25;;;;;;;;;;5054927;28;20048;-86
2023/08/30 07:01:25;;;;;;;13.13;8.95;;;;;;;;;;5088137;28;20074;-83
2023/08/30 07:03:51;;;;;;;12.20;9.07;;;;;;;;;;5091497;28;20048;-83
2023/08/30 07:06:17;;;;;;;14.35;9.93;;;;;;;;;;5091608;28;20051;-83
2023/08/30 07:08:43;;;;;;;14.77;10.20;;;;;;;;;;5088116;28;20040;-78
2023/08/30 07:11:10;;;;;;;13.38;9.65;;;;;;;;;;5083580;28;20067;-79
2023/08/30 07:13:36;;;;;;;12.43;8.82;;;;;;;;;;5082629;28;20502;-83
2023/08/30 07:16:03;;;;;;;14.32;9.52;;;;;;;;;;5084448;28;20509;-81
2023/08/30 07:18:29;;;;;;;11.48;7.80;;;;;;;;;;5084752;28;20408;-82
2023/08/30 07:20:55;;;;;;;11.38;7.43;;;;;;;;;;5088366;28;20047;-82
2023/08/30 07:23:21;;;;;;;9.07;6.90;;;;;;;;;;5090430;28;20047;-83
2023/08/30 07:25:47;;;;;;;10.52;6.00;;;;;;;;;;5093089;28;20123;-83
2023/08/30 07:28:13;;;;;;;8.15;5.70;;;;;;;;;;5092566;28;20075;-82
2023/08/30 07:30:39;;;;;;;9.60;6.07;;;;;;;;;;5064911;28;20125;-81
2023/08/30 07:33:06;;;;;;;10.23;6.30;;;;;;;;;;5071194;28;20058;-82
2023/08/30 07:35:32;;;;;;;9.88;6.30;;;;;;;;;;5101617;28;20514;-81
2023/08/30 07:37:58;;;;;;;9.88;5.43;;;;;;;;;;5091090;28;20082;-83
2023/08/30 07:40:26;;;;;;;7.38;5.47;;;;;;;;;;5073591;28;20097;-82
2023/08/30 07:42:52;;;;;;;9.18;5.78;;;;;;;;;;5068381;28;20399;-82
2023/08/30 07:45:18;;;;;;;8.75;6.18;;;;;;;;;;5082117;28;20064;-81
2023/08/30 07:47:45;;;;;;;10.60;7.22;;;;;;;;;;5084008;28;20125;-81
2023/08/30 07:50:11;;;;;;;9.95;7.15;;;;;;;;;;5095158;28;20090;-82
2023/08/30 07:52:37;;;;;;;10.98;8.05;;;;;;;;;;5069438;28;20054;-84
2023/08/30 07:55:05;;;;;;;12.02;7.30;;;;;;;;;;5090839;28;20117;-83
2023/08/30 07:57:35;;;;;;;14.35;7.63;;;;;;;;;;5084082;28;20047;-86
2023/08/30 08:00:15;;;;;;;13.98;7.97;;;;;;;;;;5056981;28;20132;-83
2023/08/30 08:02:41;;;;;;;11.70;8.40;;;;;;;;;;5080333;28;20059;-81
2023/08/30 08:05:07;;;;;;;11.63;8.20;;;;;;;;;;5082535;28;20051;-81
2023/08/30 08:07:34;;;;;;;12.95;8.95;;;;;;;;;;5086762;28;20050;-82
2023/08/30 08:10:00;;;;;;;14.00;8.88;;;;;;;;;;5095851;28;20048;-82
2023/08/30 08:12:27;;;;;;;13.40;10.00;;;;;;;;;;5089409;28;20052;-82
2023/08/30 08:14:53;;;;;;;10.93;8.02;;;;;;;;;;5091832;28;20097;-83
2023/08/30 08:17:19;;;;;;;9.70;6.93;;;;;;;;;;5085794;28;20051;-82
2023/08/30 08:19:45;;;;;;;9.43;6.32;;;;;;;;;;5097003;28;20044;-84
2023/08/30 08:22:11;;;;;;;7.18;4.63;;;;;;;;;;5083494;28;20048;-84
2023/08/30 08:24:37;;;;;;;11.50;5.45;;;;;;;;;;5090159;28;20044;-83
2023/08/30 08:27:05;;;;;;;7.53;4.97;;;;;;;;;;5099369;28;20104;-84
2023/08/30 08:29:31;;;;;;;6.93;4.13;;;;;;;;;;5073002;28;20426;-81
2023/08/30 08:31:57;;;;;;;5.53;3.67;;;;;;;;;;5090207;28;20075;-85
2023/08/30 08:34:23;;;;;;;6.43;3.75;;;;;;;;;;5092064;28;20047;-84
2023/08/30 08:36:49;;;;;;;5.85;3.80;;;;;;;;;;5071099;28;20047;-84
2023/08/30 08:39:16;;;;;;;8.43;4.50;;;;;;;;;;5066935;28;20445;-84
2023/08/30 08:41:43;;;;;;;8.00;4.90;;;;;;;;;;5065124;28;20036;-83
2023/08/30 08:44:09;;;;;;;8.32;4.10;;;;;;;;;;5069787;28;20601;-84
2023/08/30 08:46:38;;;;;;;10.30;4.75;;;;;;;;;;5081468;28;20059;-85
2023/08/30 08:49:09;;;;;;;7.03;4.85;;;;;;;;;;5070133;28;20059;-85
2023/08/30 08:51:36;;;;;;;7.85;5.20;;;;;;;;;;5065982;28;20043;-84
2023/08/30 08:54:03;;;;;;;7.70;4.78;;;;;;;;;;5084438;28;20048;-85
2023/08/30 08:56:31;;;;;;;12.00;5.22;;;;;;;;;;5090569;28;20097;-85
2023/08/30 08:58:57;;;;;;;9.00;5.25;;;;;;;;;;5073410;28;20062;-83
2023/08/30 09:01:24;;;;;;;10.27;5.45;;;;;;;;;;5092181;28;20055;-83
2023/08/30 09:03:50;;;;;;;6.57;4.40;;;;;;;;;;5081872;28;20043;-83
2023/08/30 09:06:17;;;;;;;5.93;4.15;;;;;;;;;;5075589;28;20044;-82
2023/08/30 09:08:43;;;;;;;6.38;4.18;;;;;;;;;;5091326;28;20040;-83
2023/08/30 09:11:09;;;;;;;5.15;4.30;;;;;;;;;;5076021;28;20418;-83
2023/08/30 09:13:35;;;;;;;10.10;4.55;;;;;;;;;;5090364;28;20052;-84
2023/08/30 09:16:02;;;;;;;5.40;3.88;;;;;;;;;;5072085;28;20433;-83
2023/08/30 09:18:28;;;;;;;7.85;4.57;;;;;;;;;;5068474;28;20056;-83
2023/08/30 09:21:07;;;;;;;8.93;4.50;;;;;;;;;;5076543;28;20445;-84
2023/08/30 09:23:33;;;;;;;8.95;4.45;;;;;;;;;;5093083;28;20040;-84
2023/08/30 09:26:00;;;;;;;9.80;4.38;;;;;;;;;;5093795;28;20052;-83
2023/08/30 09:28:26;;;;;;;8.70;4.28;;;;;;;;;;5080549;28;20045;-84
2023/08/30 09:30:57;;;;;;;8.50;4.60;;;;;;;;;;5087465;28;20067;-83
2023/08/30 09:33:24;;;;;;;9.48;4.63;;;;;;;;;;5101299;28;20394;-84
2023/08/30 09:35:50;;;;;;;7.50;4.90;;;;;;;;;;5095999;28;20051;-84
2023/08/30 09:38:17;;;;;;;8.57;4.30;;;;;;;;;;5093019;28;20086;-84
2023/08/30 09:40:44;;;;;;;6.95;4.45;;;;;;;;;;5092666;28;20047;-83
2023/08/30 09:43:10;;;;;;;6.63;4.22;;;;;;;;;;5071697;28;20052;-84
2023/08/30 09:45:36;;;;;;;4.82;4.03;;;;;;;;;;5090356;28;20113;-85
2023/08/30 09:48:02;;;;;;;6.40;4.57;;;;;;;;;;5089725;28;20395;-86
2023/08/30 09:50:29;;;;;;;8.23;4.93;;;;;;;;;;5085001;28;20123;-85
2023/08/30 09:52:55;;;;;;;6.68;4.80;;;;;;;;;;5083017;28;20055;-84
2023/08/30 09:55:22;;;;;;;6.88;4.18;;;;;;;;;;5084440;28;20047;-84
2023/08/30 09:57:49;;;;;;;6.85;4.40;;;;;;;;;;5092632;28;20399;-83
2023/08/30 10:00:15;;;;;;;6.75;4.40;;;;;;;;;;5090289;28;20479;-84
2023/08/30 10:02:43;;;;;;;8.73;4.30;;;;;;;;;;5091866;28;20087;-84
2023/08/30 10:05:10;;;;;;;7.90;4.55;;;;;;;;;;5069125;28;20384;-83
2023/08/30 10:07:37;;;;;;;4.97;4.10;;;;;;;;;;5092124;28;20114;-83
2023/08/30 10:10:07;;;;;;;7.10;4.50;;;;;;;;;;5094184;28;20048;-84
2023/08/30 10:12:33;;;;;;;6.63;4.72;;;;;;;;;;5082162;28;20059;-84
2023/08/30 10:14:59;;;;;;;5.68;4.47;;;;;;;;;;5083571;28;20093;-85
2023/08/30 10:17:28;;;;;;;5.20;4.47;;;;;;;;;;5089990;28;20479;-85
2023/08/30 10:19:54;;;;;;;6.47;4.47;;;;;;;;;;5061814;28;20716;-87
2023/08/30 10:22:21;;;;;;;6.40;4.40;;;;;;;;;;5067105;28;20050;-88
2023/08/30 10:24:51;;;;;;;4.85;4.28;;;;;;;;;;5074187;28;20044;-88
2023/08/30 10:27:17;;;;;;;7.15;4.53;;;;;;;;;;5093584;28;20149;-87
2023/08/30 10:29:44;;;;;;;6.15;4.50;;;;;;;;;;5082152;28;20040;-86
2023/08/30 10:32:10;;;;;;;6.45;4.72;;;;;;;;;;5067307;28;20044;-85
2023/08/30 10:34:37;;;;;;;6.40;4.50;;;;;;;;;;5090656;28;20126;-87
2023/08/30 10:37:04;;;;;;;7.65;4.40;;;;;;;;;;5094362;28;20067;-87
2023/08/30 10:39:37;;;;;;;7.20;4.82;;;;;;;;;;5088326;28;20047;-86
2023/08/30 10:42:13;;;;;;;5.80;4.82;;;;;;;;;;5089133;28;20484;-86
2023/08/30 10:44:52;;;;;;;6.13;5.05;;;;;;;;;;5090837;28;20056;-86
2023/08/30 10:47:19;;;;;;;5.75;4.60;;;;;;;;;;5079132;28;20040;-87
2023/08/30 10:49:47;;;;;;;5.53;4.22;;;;;;;;;;5064616;28;20048;-87
2023/08/30 10:52:13;;;;;;;7.25;4.07;;;;;;;;;;5081721;28;20052;-87
2023/08/30 10:54:39;;;;;;;5.50;4.18;;;;;;;;;;5091290;28;20067;-88
2023/08/30 10:57:05;;;;;;;4.50;3.60;;;;;;;;;;5090533;28;20040;-87
2023/08/30 10:59:31;;;;;;;4.57;3.55;;;;;;;;;;5071416;28;20097;-87
2023/08/30 11:02:03;;;;;;;6.47;3.88;;;;;;;;;;5096454;28;20068;-86
2023/08/30 11:04:29;;;;;;;4.32;3.67;;;;;;;;;;5092605;28;20048;-86
2023/08/30 11:06:55;;;;;;;4.07;3.50;;;;;;;;;;5067073;28;20071;-80
2023/08/30 11:09:22;;;;;;;5.30;4.15;;;;;;;;;;5073740;28;20063;-81
2023/08/30 11:11:49;;;;;;;3.90;3.45;;;;;;;;;;5066279;28;20043;-82
2023/08/30 11:14:15;;;;;;;4.72;3.75;;;;;;;;;;5091125;28;20483;-82
2023/08/30 11:16:41;;;;;;;4.45;3.50;;;;;;;;;;5090546;28;20044;-81
2023/08/30 11:19:08;;;;;;;4.80;3.63;;;;;;;;;;5074070;28;20066;-80
2023/08/30 11:21:37;;;;;;;5.10;3.30;;;;;;;;;;5085324;28;20092;-81
2023/08/30 11:24:04;;;;;;;4.35;3.30;;;;;;;;;;5092662;28;20380;-81
2023/08/30 11:26:30;;;;;;;3.28;2.90;;;;;;;;;;5090813;28;20047;-82
2023/08/30 11:28:56;;;;;;;3.58;3.10;;;;;;;;;;5087465;28;20504;-80
2023/08/30 11:31:26;;;;;;;3.05;2.70;;;;;;;;;;5090113;28;20505;-81
2023/08/30 11:33:55;;;;;;;3.80;2.90;;;;;;;;;;5092542;28;20051;-81
2023/08/30 11:36:22;;;;;;;5.18;2.55;;;;;;;;;;5092194;28;20044;-81
2023/08/30 11:38:51;;;;;;;2.70;2.50;;;;;;;;;;5088748;28;20036;-80
2023/08/30 11:41:17;;;;;;;2.50;2.30;;;;;;;;;;5092292;28;20051;-81
2023/08/30 11:43:44;;;;;;;3.00;2.10;;;;;;;;;;5091274;28;20066;-81
2023/08/30 11:46:12;;;;;;;3.35;2.40;;;;;;;;;;5090604;28;20051;-81
2023/08/30 11:48:39;;;;;;;3.95;2.40;;;;;;;;;;5084531;28;20043;-80
2023/08/30 11:51:05;;;;;;;4.68;2.40;;;;;;;;;;5071456;28;20048;-81
2023/08/30 11:53:32;;;;;;;3.45;2.40;;;;;;;;;;5091750;28;20425;-81
2023/08/30 11:55:58;;;;;;;2.50;2.30;;;;;;;;;;5080999;28;20036;-80
2023/08/30 11:58:24;;;;;;;2.75;2.17;;;;;;;;;;5091999;28;20055;-81
2023/08/30 12:00:51;;;;;;;4.22;2.30;;;;;;;;;;5070241;28;20506;-81
2023/08/30 12:03:17;;;;;;;3.00;2.15;;;;;;;;;;5089743;28;20052;-80
2023/08/30 12:05:47;;;;;;;2.20;2.00;;;;;;;;;;5086543;28;20093;-78
2023/08/30 12:08:33;;;;;;;2.42;2.22;;;;;;;;;;5092776;28;20044;-78
2023/08/30 12:10:59;;;;;;;2.50;2.30;;;;;;;;;;5089009;28;20565;-77
2023/08/30 12:13:26;;;;;;;2.90;2.10;;;;;;;;;;5071757;28;20419;-77
2023/08/30 12:15:53;;;;;;;2.72;2.47;;;;;;;;;;5090809;28;20036;-79
2023/08/30 12:18:23;;;;;;;3.10;2.80;;;;;;;;;;5071070;28;20143;-80
2023/08/30 12:20:53;;;;;;;3.30;2.72;;;;;;;;;;5087205;28;20140;-79
2023/08/30 12:23:20;;;;;;;3.65;2.80;;;;;;;;;;5069050;28;20043;-80
2023/08/30 12:25:56;;;;;;;3.90;3.05;;;;;;;;;;5089167;28;20135;-79
2023/08/30 12:28:22;;;;;;;4.85;2.95;;;;;;;;;;5069384;28;20081;-79
2023/08/30 12:30:48;;;;;;;3.90;2.63;;;;;;;;;;5088169;28;20044;-80
2023/08/30 12:33:17;;;;;;;4.15;3.00;;;;;;;;;;5102795;28;20035;-80
2023/08/30 12:35:43;;;;;;;4.78;3.15;;;;;;;;;;5095929;28;20538;-79
2023/08/30 12:38:11;;;;;;;6.25;2.75;;;;;;;;;;5090338;28;20452;-79
2023/08/30 12:40:37;;;;;;;5.90;3.50;;;;;;;;;;5088449;28;20063;-80
2023/08/30 12:43:04;;;;;;;6.60;3.03;;;;;;;;;;5085934;28;20480;-79
2023/08/30 12:45:30;;;;;;;5.68;3.47;;;;;;;;;;5090233;28;20135;-78
2023/08/30 12:47:58;;;;;;;5.78;3.22;;;;;;;;;;5074848;28;20475;-78
2023/08/30 12:50:24;;;;;;;3.75;2.97;;;;;;;;;;5079112;28;20058;-75
2023/08/30 12:52:51;;;;;;;6.53;3.00;;;;;;;;;;5099185;28;20044;-76
2023/08/30 12:55:19;;;;;;;7.32;3.10;;;;;;;;;;5099462;28;20052;-75
2023/08/30 12:57:46;;;;;;;7.50;3.25;;;;;;;;;;5072180;28;20052;-76
2023/08/30 13:00:13;;;;;;;6.30;2.85;;;;;;;;;;5059286;28;20392;-75
2023/08/30 13:02:39;;;;;;;6.55;2.70;;;;;;;;;;5090228;28;20514;-75
2023/08/30 13:05:05;;;;;;;6.50;2.75;;;;;;;;;;5092543;28;20091;-75
2023/08/30 13:07:31;;;;;;;6.57;2.80;;;;;;;;;;5067023;28;20036;-76
2023/08/30 13:09:57;;;;;;;6.68;2.75;;;;;;;;;;5090913;28;20378;-79
2023/08/30 13:12:24;;;;;;;7.65;2.70;;;;;;;;;;5079672;28;20600;-79
2023/08/30 13:14:50;;;;;;;7.25;2.47;;;;;;;;;;5111305;28;20055;-78
2023/08/30 13:17:17;;;;;;;5.15;2.38;;;;;;;;;;5090244;28;20036;-78
2023/08/30 13:19:43;;;;;;;5.75;2.38;;;;;;;;;;5071490;28;20124;-74
2023/08/30 13:22:09;;;;;;;8.40;2.78;;;;;;;;;;5088712;28;20079;-80
2023/08/30 13:24:36;;;;;;;6.93;2.55;;;;;;;;;;5082634;28;20045;-80
2023/08/30 13:27:02;;;;;;;5.65;2.60;;;;;;;;;;5087859;28;20052;-81
2023/08/30 13:29:28;;;;;;;5.28;2.47;;;;;;;;;;5092610;28;20082;-80
2023/08/30 13:31:54;;;;;;;7.90;2.47;;;;;;;;;;5076846;28;20991;-80
2023/08/30 13:34:20;;;;;;;6.50;2.28;;;;;;;;;;5090145;28;20080;-80
2023/08/30 13:36:46;;;;;;;9.75;2.28;;;;;;;;;;5069235;28;20040;-80
2023/08/30 13:39:12;;;;;;;4.60;2.22;;;;;;;;;;5094827;28;20074;-80
2023/08/30 13:41:38;;;;;;;7.28;2.67;;;;;;;;;;5086525;28;20080;-80
2023/08/30 13:44:05;;;;;;;8.70;1.98;;;;;;;;;;5092398;28;20075;-80
2023/08/30 13:46:31;;;;;;;5.13;2.08;;;;;;;;;;5094523;28;20051;-79
2023/08/30 13:48:57;;;;;;;3.38;1.80;;;;;;;;;;5092686;28;20093;-76
2023/08/30 13:51:24;;;;;;;5.18;2.40;;;;;;;;;;5075446;28;20105;-78
2023/08/30 13:53:53;;;;;;;3.38;1.95;;;;;;;;;;5082699;28;20048;-76
2023/08/30 13:56:19;;;;;;;5.78;2.03;;;;;;;;;;5098327;28;20047;-77
2023/08/30 13:58:46;;;;;;;4.47;1.88;;;;;;;;;;5073030;28;20044;-77
2023/08/30 14:01:12;;;;;;;5.50;1.88;;;;;;;;;;5072174;28;20503;-77
2023/08/30 14:03:38;;;;;;;4.18;1.80;;;;;;;;;;5091934;28;20044;-78
2023/08/30 14:06:04;;;;;;;5.07;1.90;;;;;;;;;;5093200;28;20105;-79
2023/08/30 14:08:31;;;;;;;6.13;2.20;;;;;;;;;;5095248;28;20088;-80
2023/08/30 14:10:57;;;;;;;4.45;1.90;;;;;;;;;;5072167;28;20048;-81
2023/08/30 14:13:23;;;;;;;5.75;2.15;;;;;;;;;;5094039;28;20441;-78
2023/08/30 14:15:49;;;;;;;5.72;1.92;;;;;;;;;;5089617;28;20442;-78
2023/08/30 14:18:16;;;;;;;6.20;2.10;;;;;;;;;;5075137;28;20381;-78
2023/08/30 14:20:42;;;;;;;5.28;1.88;;;;;;;;;;5072264;28;20059;-79
2023/08/30 14:23:08;;;;;;;4.78;1.95;;;;;;;;;;5075838;28;20047;-78
2023/08/30 14:25:34;;;;;;;5.50;1.83;;;;;;;;;;5087377;28;20490;-78
2023/08/30 14:28:01;;;;;;;3.60;1.73;;;;;;;;;;5091855;28;20040;-79
2023/08/30 14:30:27;;;;;;;5.07;1.73;;;;;;;;;;5089572;28;20048;-78
2023/08/30 14:32:53;;;;;;;4.30;1.90;;;;;;;;;;5092225;28;20044;-78